Creamridge, New Jersey
Current Conditions -  °F | °C
As of 10:58 AM on Sunday 25 Jan 2015 (Local Time) from KWRI Reporting Station
Clear Clear  
Wind Chill: 34°   Ceiling: Unl
Heat Index: 42°   Visibility: 9mi
Dew Point: 30°   Wind: 16mph
Humidity: 62%   Direction: 280°W
Pressure: 29.77"   Gusts: 22mph
Location:  40.1405°N, 74.4965°W
Report Text: KWRI 251558Z AUTO 28014G19KT 9SM CLR 06/M01 A2977 RMK AO2 UPB1521E1535 SLP085 P0000 T00551013
Loading
Personal Weather Stations






























Interactive Weather Map New forecast layout! Learn more

10-Day Weather Forecast

Advertisements
Track Severe Weather on mobile